Time;durP1;ratioP1;P1;durP2;ratioP2;P2;SDS_P1;SDS_P2;PMS_P1;PMS_P2;Temp;Humidity;BMP_temperature;BMP_pressure;BME280_temperature;BME280_humidity;BME280_pressure;Samples;Min_cycle;Max_cycle;Signal;HPM_P1;HPM_P2
2020/12/09 00:00:35;;;;;;;9.97;5.33;;;4.70;99.90;;;;;;5070986;28;20271;-69
2020/12/09 00:03:04;;;;;;;6.67;5.20;;;4.70;99.90;;;;;;5070089;28;20725;-69
2020/12/09 00:05:32;;;;;;;7.50;4.33;;;4.70;99.90;;;;;;5070894;28;20211;-69
2020/12/09 00:07:58;;;;;;;10.37;5.93;;;4.60;99.90;;;;;;5070108;28;20214;-69
2020/12/09 00:10:24;;;;;;;8.33;5.77;;;4.50;99.90;;;;;;5070788;28;20224;-69
2020/12/09 00:12:51;;;;;;;7.80;5.93;;;4.50;99.90;;;;;;5070550;28;20257;-69
2020/12/09 00:15:18;;;;;;;9.67;6.37;;;4.50;99.90;;;;;;5070382;28;20209;-69
2020/12/09 00:17:44;;;;;;;15.50;7.07;;;4.40;99.90;;;;;;5071055;28;20232;-71
2020/12/09 00:20:11;;;;;;;12.43;6.47;;;4.40;99.90;;;;;;5070450;28;20202;-71
2020/12/09 00:22:38;;;;;;;8.43;6.20;;;4.40;99.90;;;;;;5070584;28;20234;-70
2020/12/09 00:25:05;;;;;;;11.43;6.03;;;4.50;99.90;;;;;;5070183;28;20263;-69
2020/12/09 00:27:33;;;;;;;13.67;5.87;;;4.60;99.90;;;;;;5069895;28;20206;-69
2020/12/09 00:30:01;;;;;;;8.00;6.47;;;4.60;99.90;;;;;;5070400;28;20210;-69
2020/12/09 00:32:28;;;;;;;14.77;8.00;;;4.70;99.90;;;;;;5070849;28;20267;-70
2020/12/09 00:34:55;;;;;;;7.60;6.13;;;4.60;99.90;;;;;;5070022;28;20208;-69
2020/12/09 00:37:21;;;;;;;12.50;7.50;;;4.70;99.90;;;;;;5070452;28;20210;-71
2020/12/09 00:39:48;;;;;;;9.53;6.67;;;4.70;99.90;;;;;;5070125;28;20202;-69
2020/12/09 00:42:15;;;;;;;9.70;6.73;;;4.60;99.90;;;;;;5070625;28;20290;-71
2020/12/09 00:44:41;;;;;;;12.50;6.17;;;4.50;99.90;;;;;;5070217;28;20210;-71
2020/12/09 00:47:08;;;;;;;7.67;5.97;;;4.50;99.90;;;;;;5069989;28;20263;-69
2020/12/09 00:49:53;;;;;;;11.50;6.30;;;4.50;99.90;;;;;;5069814;28;20731;-70
2020/12/09 00:52:20;;;;;;;14.47;6.37;;;4.50;99.90;;;;;;5070492;28;20202;-70
2020/12/09 00:54:46;;;;;;;7.67;6.40;;;4.40;99.90;;;;;;5070237;28;20232;-71
2020/12/09 00:57:13;;;;;;;8.63;5.80;;;4.30;99.90;;;;;;5070598;28;20238;-69
2020/12/09 00:59:40;;;;;;;12.00;6.50;;;4.20;99.90;;;;;;5070009;28;20259;-68
2020/12/09 01:02:06;;;;;;;13.27;6.93;;;4.30;99.90;;;;;;5069896;28;20326;-68
2020/12/09 01:04:33;;;;;;;7.73;5.93;;;4.20;99.90;;;;;;5070262;28;20202;-67
2020/12/09 01:06:59;;;;;;;6.87;5.77;;;4.10;99.90;;;;;;5069796;28;20245;-70
2020/12/09 01:09:25;;;;;;;5.93;4.77;;;4.10;99.90;;;;;;5070277;28;20291;-69
2020/12/09 01:11:52;;;;;;;7.13;5.70;;;4.00;99.90;;;;;;5069593;28;20206;-69
2020/12/09 01:14:19;;;;;;;10.23;6.63;;;4.00;99.90;;;;;;5070049;28;20731;-70
2020/12/09 01:16:46;;;;;;;12.87;6.93;;;4.00;99.90;;;;;;5069626;28;20260;-69
2020/12/09 01:19:12;;;;;;;8.60;5.80;;;4.00;99.90;;;;;;5070270;28;20203;-68
2020/12/09 01:21:38;;;;;;;11.13;6.47;;;4.00;99.90;;;;;;5069939;28;20262;-69
2020/12/09 01:24:05;;;;;;;9.73;6.17;;;4.00;99.90;;;;;;5069907;28;20623;-71
2020/12/09 01:26:31;;;;;;;11.50;6.70;;;4.00;99.90;;;;;;5069780;28;20214;-69
2020/12/09 01:28:58;;;;;;;8.77;6.57;;;4.00;99.90;;;;;;5069545;28;20256;-69
2020/12/09 01:31:25;;;;;;;8.43;6.13;;;4.10;99.90;;;;;;5070072;28;20210;-71
2020/12/09 01:33:51;;;;;;;8.10;5.97;;;4.10;99.90;;;;;;5069373;28;20230;-70
2020/12/09 01:36:26;;;;;;;10.93;5.97;;;4.10;99.90;;;;;;5070114;28;20214;-69
2020/12/09 01:38:53;;;;;;;12.83;6.47;;;4.10;99.90;;;;;;5070467;28;20251;-71
2020/12/09 01:41:20;;;;;;;9.10;6.77;;;4.20;99.90;;;;;;5073714;28;20198;-71
2020/12/09 01:43:47;;;;;;;21.37;7.90;;;4.40;99.90;;;;;;5073567;28;20267;-70
2020/12/09 01:46:15;;;;;;;8.63;5.80;;;4.60;99.90;;;;;;5073511;28;20203;-71
2020/12/09 01:48:43;;;;;;;10.47;6.37;;;4.70;99.90;;;;;;5073643;28;20206;-71
2020/12/09 01:51:10;;;;;;;9.23;7.43;;;4.80;99.90;;;;;;5073001;28;20202;-72
2020/12/09 01:53:37;;;;;;;8.37;5.63;;;4.80;99.90;;;;;;5073507;28;20214;-74
2020/12/09 01:56:03;;;;;;;7.47;5.73;;;4.90;99.90;;;;;;5064183;28;20206;-70
2020/12/09 01:58:29;;;;;;;10.10;6.70;;;5.00;99.90;;;;;;5073158;28;20255;-74
2020/12/09 02:00:56;;;;;;;7.27;5.00;;;5.00;99.90;;;;;;5072775;28;20358;-70
2020/12/09 02:03:23;;;;;;;7.97;5.57;;;5.00;99.90;;;;;;5073444;28;20234;-71
2020/12/09 02:05:50;;;;;;;7.50;5.27;;;5.10;99.90;;;;;;5065665;28;20751;-72
2020/12/09 02:08:16;;;;;;;6.83;6.00;;;5.10;99.90;;;;;;5072788;28;20202;-69
2020/12/09 02:10:45;;;;;;;10.13;5.43;;;5.10;99.90;;;;;;5073572;28;20236;-68
2020/12/09 02:13:11;;;;;;;5.90;4.73;;;5.10;99.90;;;;;;5072744;28;20210;-69
2020/12/09 02:15:38;;;;;;;6.07;5.10;;;5.10;99.90;;;;;;5072603;28;20630;-72
2020/12/09 02:18:04;;;;;;;6.77;4.47;;;5.00;99.90;;;;;;5072550;28;20210;-73
2020/12/09 02:20:30;;;;;;;5.53;4.53;;;5.10;99.90;;;;;;5072973;28;20206;-73
2020/12/09 02:22:58;;;;;;;6.20;5.53;;;5.10;99.90;;;;;;5072178;28;20660;-72
2020/12/09 02:25:24;;;;;;;9.57;5.13;;;5.10;99.90;;;;;;5072868;28;20202;-70
2020/12/09 02:27:50;;;;;;;8.70;5.30;;;5.10;99.90;;;;;;5072671;28;20206;-71
2020/12/09 02:30:17;;;;;;;8.67;5.07;;;5.00;99.90;;;;;;5072102;28;20206;-68
2020/12/09 02:32:43;;;;;;;7.67;4.83;;;5.00;99.90;;;;;;5072939;28;20206;-71
2020/12/09 02:35:10;;;;;;;5.80;4.40;;;5.00;99.90;;;;;;5071707;28;20678;-69
2020/12/09 02:37:36;;;;;;;7.97;5.43;;;5.00;99.90;;;;;;5072562;28;20214;-71
2020/12/09 02:40:04;;;;;;;6.20;4.93;;;5.00;99.90;;;;;;5072099;28;20251;-71
2020/12/09 02:42:30;;;;;;;6.17;5.00;;;5.00;99.90;;;;;;5072663;28;20222;-70
2020/12/09 02:44:57;;;;;;;8.03;5.67;;;4.90;99.90;;;;;;5071795;28;20626;-70
2020/12/09 02:47:23;;;;;;;7.60;5.33;;;5.00;99.90;;;;;;5072246;28;20670;-71
2020/12/09 02:49:50;;;;;;;8.47;5.37;;;5.00;99.90;;;;;;5071504;28;20206;-71
2020/12/09 02:52:16;;;;;;;5.60;4.97;;;5.00;99.90;;;;;;5071814;28;20260;-70
2020/12/09 02:54:42;;;;;;;6.57;4.97;;;5.00;99.90;;;;;;5072630;28;20549;-72
2020/12/09 02:57:10;;;;;;;7.17;5.17;;;5.10;99.90;;;;;;5071633;28;20210;-73
2020/12/09 02:59:36;;;;;;;9.33;5.10;;;5.00;99.90;;;;;;5072160;28;20275;-71
2020/12/09 03:02:03;;;;;;;5.73;4.87;;;4.80;99.90;;;;;;5071660;28;20288;-72
2020/12/09 03:04:29;;;;;;;6.07;5.47;;;4.60;99.90;;;;;;5071797;28;20319;-72
2020/12/09 03:06:55;;;;;;;7.20;5.00;;;4.50;99.90;;;;;;5071557;28;20210;-73
2020/12/09 03:09:22;;;;;;;6.77;5.20;;;4.50;99.90;;;;;;5071866;28;20299;-68
2020/12/09 03:11:48;;;;;;;8.47;5.00;;;4.50;99.90;;;;;;5071783;28;20259;-68
2020/12/09 03:14:16;;;;;;;9.30;5.63;;;4.50;99.90;;;;;;5071967;28;20206;-68
2020/12/09 03:16:42;;;;;;;5.67;4.90;;;4.50;99.90;;;;;;5072025;28;20214;-68
2020/12/09 03:19:08;;;;;;;6.23;5.20;;;4.60;99.90;;;;;;5071534;28;20206;-69
2020/12/09 03:21:35;;;;;;;8.57;5.47;;;4.60;99.90;;;;;;5071231;28;20739;-70
2020/12/09 03:24:01;;;;;;;9.83;5.37;;;4.60;99.90;;;;;;5071289;28;20244;-69
2020/12/09 03:26:28;;;;;;;12.77;6.00;;;4.60;99.90;;;;;;5071617;28;20252;-68
2020/12/09 03:28:54;;;;;;;10.83;6.77;;;4.60;99.90;;;;;;5071148;28;20252;-69
2020/12/09 03:31:22;;;;;;;7.70;4.40;;;4.60;99.90;;;;;;5071094;28;20210;-68
2020/12/09 03:33:48;;;;;;;8.63;7.07;;;4.70;99.90;;;;;;5071370;28;20271;-70
2020/12/09 03:36:15;;;;;;;9.47;5.83;;;4.70;99.90;;;;;;5071940;28;20203;-71
2020/12/09 03:38:41;;;;;;;7.73;4.63;;;4.80;99.90;;;;;;5071763;28;20270;-71
2020/12/09 03:41:08;;;;;;;7.50;4.97;;;4.80;99.90;;;;;;5070938;28;20743;-72
2020/12/09 03:43:34;;;;;;;7.33;5.73;;;4.90;99.90;;;;;;5070606;28;20288;-70
2020/12/09 03:46:01;;;;;;;7.90;4.80;;;4.90;99.90;;;;;;5070555;28;20682;-72
2020/12/09 03:48:28;;;;;;;6.93;4.97;;;4.90;99.90;;;;;;5070794;28;20253;-70
2020/12/09 03:50:54;;;;;;;7.17;5.87;;;4.90;99.90;;;;;;5071059;28;20557;-70
2020/12/09 03:53:21;;;;;;;7.17;5.33;;;4.90;99.90;;;;;;5070948;28;20210;-72
2020/12/09 03:55:47;;;;;;;6.33;5.57;;;4.90;99.90;;;;;;5070655;28;20206;-70
2020/12/09 03:58:14;;;;;;;9.70;5.90;;;4.90;99.90;;;;;;5071070;28;20210;-74
2020/12/09 04:00:40;;;;;;;7.60;6.03;;;4.90;99.90;;;;;;5071105;28;20212;-71
2020/12/09 04:03:07;;;;;;;7.13;5.13;;;4.90;99.90;;;;;;5070621;28;20685;-70
2020/12/09 04:05:34;;;;;;;8.07;5.77;;;5.00;99.90;;;;;;5070715;28;20248;-69
2020/12/09 04:08:01;;;;;;;7.87;4.17;;;5.00;99.90;;;;;;5070371;28;20267;-70
2020/12/09 04:10:28;;;;;;;7.77;5.03;;;5.00;99.90;;;;;;5070822;28;20263;-72
2020/12/09 04:12:54;;;;;;;9.73;5.03;;;5.00;99.90;;;;;;5070018;28;20202;-71
2020/12/09 04:15:21;;;;;;;5.77;5.03;;;5.00;99.90;;;;;;5070630;28;20214;-72
2020/12/09 04:17:47;;;;;;;8.20;5.03;;;5.00;99.90;;;;;;5070512;28;20205;-68
2020/12/09 04:20:14;;;;;;;5.47;4.67;;;5.00;99.90;;;;;;5070957;28;20207;-71
2020/12/09 04:22:41;;;;;;;5.50;4.67;;;5.00;99.90;;;;;;5070475;28;20303;-71
2020/12/09 04:25:07;;;;;;;8.03;4.47;;;5.00;99.90;;;;;;5070173;28;20202;-69
2020/12/09 04:27:34;;;;;;;6.10;5.20;;;5.10;99.90;;;;;;5070673;28;20206;-71
2020/12/09 04:30:00;;;;;;;6.40;4.90;;;5.00;99.90;;;;;;5069836;28;20255;-69
2020/12/09 04:32:27;;;;;;;8.17;4.90;;;5.10;99.90;;;;;;5070802;28;20629;-74
2020/12/09 04:34:58;;;;;;;8.70;5.33;;;5.00;99.90;;;;;;5069788;28;20731;-74
2020/12/09 04:37:27;;;;;;;6.27;5.03;;;5.00;99.90;;;;;;5070657;28;20248;-74
2020/12/09 04:39:55;;;;;;;7.50;5.17;;;5.10;99.90;;;;;;5069674;28;20209;-72
2020/12/09 04:42:23;;;;;;;9.17;6.10;;;5.10;99.90;;;;;;5070262;28;20226;-69
2020/12/09 04:44:51;;;;;;;7.70;4.40;;;5.10;99.90;;;;;;5070009;28;20213;-69
2020/12/09 04:47:23;;;;;;;5.53;4.97;;;5.10;99.90;;;;;;5070420;28;20206;-71
2020/12/09 04:49:52;;;;;;;8.60;6.07;;;5.10;99.90;;;;;;5070160;28;20206;-73
2020/12/09 04:52:46;;;;;;;7.93;5.63;;;5.10;99.90;;;;;;5070052;28;20217;-69
2020/12/09 04:55:15;;;;;;;6.03;5.30;;;5.10;99.90;;;;;;5069859;28;20206;-68
2020/12/09 04:58:15;;;;;;;9.33;6.50;;;5.10;99.90;;;;;;5070810;28;20351;-68
2020/12/09 05:00:45;;;;;;;9.63;5.80;;;5.10;99.90;;;;;;5053466;28;20236;-69
2020/12/09 05:03:19;;;;;;;6.97;5.47;;;5.10;99.90;;;;;;5069989;28;20663;-71
2020/12/09 05:05:46;;;;;;;7.67;5.73;;;5.10;99.90;;;;;;5070192;28;20678;-72
2020/12/09 05:08:21;;;;;;;7.47;6.00;;;5.10;99.90;;;;;;5070650;28;20198;-70
2020/12/09 05:10:50;;;;;;;6.50;5.03;;;5.10;99.90;;;;;;5070003;28;20564;-68
2020/12/09 05:13:22;;;;;;;7.40;5.00;;;5.10;99.90;;;;;;5070313;28;20689;-70
2020/12/09 05:15:53;;;;;;;7.37;5.07;;;5.10;99.90;;;;;;5073656;28;20237;-72
2020/12/09 05:18:35;;;;;;;6.67;5.33;;;5.20;99.90;;;;;;5073831;28;20214;-77
2020/12/09 05:21:10;;;;;;;7.73;5.00;;;5.20;99.90;;;;;;5073632;28;20210;-71
2020/12/09 05:23:42;;;;;;;6.43;4.43;;;5.20;99.90;;;;;;5073687;28;20286;-77
2020/12/09 05:26:10;;;;;;;7.47;5.43;;;5.20;99.90;;;;;;5073442;28;20252;-76
2020/12/09 05:28:36;;;;;;;5.97;4.47;;;5.20;99.90;;;;;;5075997;28;20251;-76
2020/12/09 05:31:03;;;;;;;7.43;4.87;;;5.20;99.90;;;;;;5069068;28;20210;-75
2020/12/09 05:33:33;;;;;;;8.30;5.20;;;5.20;99.90;;;;;;5072881;28;20230;-74
2020/12/09 05:36:01;;;;;;;8.43;5.67;;;5.20;99.90;;;;;;5073294;28;20259;-75
2020/12/09 05:38:28;;;;;;;5.20;4.70;;;5.20;99.90;;;;;;5073027;28;20255;-79
2020/12/09 05:40:56;;;;;;;9.03;4.97;;;5.20;99.90;;;;;;5073411;28;20202;-79
2020/12/09 05:43:25;;;;;;;8.20;5.00;;;5.20;99.90;;;;;;5072970;28;20786;-73
2020/12/09 05:45:51;;;;;;;7.53;5.40;;;5.20;99.90;;;;;;5066125;28;20238;-74
2020/12/09 05:48:20;;;;;;;7.37;4.60;;;5.20;99.90;;;;;;5068756;28;20210;-72
2020/12/09 05:50:52;;;;;;;7.83;5.17;;;5.30;99.90;;;;;;5073689;28;20240;-72
2020/12/09 05:53:19;;;;;;;10.13;5.73;;;5.30;99.90;;;;;;5073059;28;20733;-72
2020/12/09 05:55:46;;;;;;;6.37;4.57;;;5.30;99.90;;;;;;5059532;28;20743;-69
2020/12/09 05:58:25;;;;;;;6.87;4.77;;;5.30;99.90;;;;;;5073347;28;20676;-75
2020/12/09 06:01:09;;;;;;;7.80;5.27;;;5.30;99.90;;;;;;5072657;28;20595;-74
2020/12/09 06:03:36;;;;;;;5.77;5.03;;;5.30;99.90;;;;;;5072884;28;20313;-76
2020/12/09 06:06:14;;;;;;;6.33;4.77;;;5.30;99.90;;;;;;5072659;28;20210;-74
2020/12/09 06:08:43;;;;;;;8.57;5.30;;;5.30;99.90;;;;;;5073098;28;20202;-74
2020/12/09 06:11:10;;;;;;;7.63;4.90;;;5.40;99.90;;;;;;5072666;28;20214;-74
2020/12/09 06:13:38;;;;;;;7.33;4.97;;;5.40;99.90;;;;;;5073095;28;20206;-75
2020/12/09 06:16:07;;;;;;;5.30;4.57;;;5.40;99.90;;;;;;5072534;28;20214;-70
2020/12/09 06:18:35;;;;;;;7.37;4.00;;;5.40;99.90;;;;;;5073019;28;20643;-72
2020/12/09 06:21:02;;;;;;;6.03;4.23;;;5.40;99.90;;;;;;5072311;28;20202;-70
2020/12/09 06:23:29;;;;;;;5.57;4.40;;;5.40;99.90;;;;;;5066070;28;20279;-71
2020/12/09 06:25:58;;;;;;;5.80;4.77;;;5.30;99.90;;;;;;5071107;28;20260;-73
2020/12/09 06:28:26;;;;;;;5.23;4.70;;;5.10;99.90;;;;;;5072401;28;20263;-76
2020/12/09 06:30:55;;;;;;;6.30;4.60;;;4.90;99.90;;;;;;5072324;28;20267;-71
2020/12/09 06:33:36;;;;;;;6.80;4.90;;;4.80;99.90;;;;;;5072569;28;20202;-70
2020/12/09 06:36:22;;;;;;;7.03;4.70;;;4.70;99.90;;;;;;5071792;28;20255;-74
2020/12/09 06:39:16;;;;;;;6.93;5.27;;;4.60;99.90;;;;;;5058628;28;20214;-74
2020/12/09 06:42:10;;;;;;;5.47;3.97;;;4.50;99.90;;;;;;5072404;28;20206;-72
2020/12/09 06:44:50;;;;;;;7.60;4.50;;;4.50;99.90;;;;;;5071327;28;20202;-73
2020/12/09 06:47:17;;;;;;;7.63;4.90;;;4.40;99.90;;;;;;5063999;28;20212;-72
2020/12/09 06:49:46;;;;;;;7.67;5.10;;;4.40;99.90;;;;;;5072647;28;20259;-72
2020/12/09 06:52:31;;;;;;;6.40;5.67;;;4.30;99.90;;;;;;5072019;28;20255;-74
2020/12/09 06:54:59;;;;;;;7.60;5.60;;;4.30;99.90;;;;;;5064226;28;20202;-68
2020/12/09 06:57:33;;;;;;;6.83;5.07;;;4.30;99.90;;;;;;5064331;28;20288;-75
2020/12/09 07:00:30;;;;;;;7.30;5.47;;;4.20;99.90;;;;;;5070548;28;20260;-69
2020/12/09 07:03:08;;;;;;;7.33;5.27;;;4.20;99.90;;;;;;5060617;28;20717;-72
2020/12/09 07:05:35;;;;;;;8.97;6.23;;;4.10;99.90;;;;;;5071539;28;20661;-73
2020/12/09 07:08:03;;;;;;;7.10;5.77;;;4.00;99.90;;;;;;5071297;28;20206;-72
2020/12/09 07:10:31;;;;;;;8.10;6.00;;;4.00;99.90;;;;;;5072130;28;20293;-71
2020/12/09 07:13:09;;;;;;;7.60;5.53;;;4.00;99.90;;;;;;5063447;28;20202;-75
2020/12/09 07:15:37;;;;;;;6.70;5.80;;;3.90;99.90;;;;;;5071715;28;20217;-71
2020/12/09 07:18:05;;;;;;;9.70;5.30;;;3.90;99.90;;;;;;5068907;28;20249;-76
2020/12/09 07:20:32;;;;;;;9.30;6.17;;;3.90;99.90;;;;;;5071655;28;20232;-75
2020/12/09 07:22:58;;;;;;;10.93;6.27;;;3.90;99.90;;;;;;5071181;28;20230;-74
2020/12/09 07:25:25;;;;;;;10.50;8.27;;;3.80;99.90;;;;;;5071485;28;20638;-72
2020/12/09 07:27:52;;;;;;;7.80;7.00;;;3.90;99.90;;;;;;5070796;28;20206;-75
2020/12/09 07:30:20;;;;;;;8.90;6.73;;;4.00;99.90;;;;;;5071400;28;20673;-72
2020/12/09 07:32:48;;;;;;;7.87;5.93;;;4.10;99.90;;;;;;5071552;28;20210;-70
2020/12/09 07:35:17;;;;;;;8.03;5.87;;;4.20;99.90;;;;;;5071109;28;20623;-69
2020/12/09 07:37:46;;;;;;;11.33;5.90;;;4.20;99.90;;;;;;5071223;28;20319;-69
2020/12/09 07:40:20;;;;;;;6.37;4.97;;;4.20;99.90;;;;;;5071223;28;20576;-69
2020/12/09 07:42:46;;;;;;;6.07;4.53;;;4.30;99.90;;;;;;5070806;28;20224;-68
2020/12/09 07:45:16;;;;;;;8.23;4.97;;;4.60;99.90;;;;;;5070973;28;20248;-71
2020/12/09 07:47:44;;;;;;;5.17;4.23;;;4.80;99.90;;;;;;5069595;28;20202;-70
2020/12/09 07:50:11;;;;;;;5.07;4.20;;;4.70;99.90;;;;;;5070800;28;20256;-71
2020/12/09 07:52:40;;;;;;;8.37;5.93;;;4.70;99.90;;;;;;5070873;28;20670;-71
2020/12/09 07:55:14;;;;;;;10.83;6.00;;;4.80;99.90;;;;;;5070676;28;20284;-72
2020/12/09 07:57:41;;;;;;;5.50;3.93;;;4.90;99.90;;;;;;5070945;28;20259;-72
2020/12/09 08:00:10;;;;;;;5.73;4.80;;;4.90;99.90;;;;;;5070118;28;20252;-69
2020/12/09 08:02:37;;;;;;;7.63;3.80;;;5.00;99.90;;;;;;5070814;28;20260;-72
2020/12/09 08:05:18;;;;;;;7.70;3.60;;;5.20;99.90;;;;;;5069964;28;20289;-73
2020/12/09 08:07:52;;;;;;;11.33;5.40;;;5.20;99.90;;;;;;5061643;28;20213;-70
2020/12/09 08:10:21;;;;;;;6.23;4.47;;;5.30;99.90;;;;;;5069115;28;20616;-68
2020/12/09 08:12:48;;;;;;;5.27;3.73;;;5.40;99.90;;;;;;5069273;28;20265;-73
2020/12/09 08:15:14;;;;;;;4.17;3.77;;;5.40;99.90;;;;;;5059611;28;20272;-71
2020/12/09 08:17:47;;;;;;;3.93;3.03;;;5.50;99.90;;;;;;5070767;28;20404;-72
2020/12/09 08:20:14;;;;;;;4.63;2.93;;;5.60;99.90;;;;;;5070878;28;20218;-69
2020/12/09 08:22:55;;;;;;;2.87;2.50;;;5.50;99.90;;;;;;5070792;28;20276;-72
2020/12/09 08:25:23;;;;;;;4.67;3.17;;;5.50;99.90;;;;;;5069979;28;20669;-69
2020/12/09 08:27:50;;;;;;;3.20;2.10;;;5.70;99.90;;;;;;5069931;28;20210;-67
2020/12/09 08:30:21;;;;;;;2.70;2.20;;;5.80;99.90;;;;;;5070538;28;20264;-68
2020/12/09 08:33:00;;;;;;;2.97;1.90;;;5.70;99.90;;;;;;5060500;28;20206;-67
2020/12/09 08:35:28;;;;;;;2.97;2.60;;;5.80;99.90;;;;;;5064819;28;20202;-72
2020/12/09 08:37:55;;;;;;;2.57;2.10;;;5.90;99.90;;;;;;5069174;28;20686;-76
2020/12/09 08:40:22;;;;;;;1.50;1.30;;;6.00;99.90;;;;;;5062294;28;20210;-72
2020/12/09 08:42:54;;;;;;;1.97;1.47;;;5.90;99.90;;;;;;5069443;28;20717;-72
2020/12/09 08:45:21;;;;;;;3.63;2.10;;;6.00;99.90;;;;;;5068660;28;20234;-70
2020/12/09 08:47:48;;;;;;;1.87;1.70;;;6.20;99.90;;;;;;5069246;28;20643;-69
2020/12/09 08:50:15;;;;;;;5.40;3.00;;;6.40;99.90;;;;;;5069804;28;20206;-71
2020/12/09 08:52:42;;;;;;;3.73;3.07;;;6.40;99.90;;;;;;5070787;28;20245;-70
2020/12/09 08:55:09;;;;;;;4.10;2.47;;;6.70;99.90;;;;;;5069874;28;20232;-71
2020/12/09 08:57:36;;;;;;;2.37;1.90;;;7.10;99.90;;;;;;5070298;28;20214;-72
2020/12/09 09:00:05;;;;;;;1.90;1.50;;;7.40;99.90;;;;;;5069631;28;20272;-71
2020/12/09 09:02:31;;;;;;;2.47;1.13;;;7.90;99.90;;;;;;5069614;28;20221;-72
2020/12/09 09:04:57;;;;;;;3.07;1.90;;;8.30;99.90;;;;;;5065519;28;20210;-72
2020/12/09 09:07:24;;;;;;;2.07;1.27;;;8.00;99.90;;;;;;5060317;28;20205;-72
2020/12/09 09:09:50;;;;;;;2.73;1.73;;;7.60;99.90;;;;;;5060911;28;20203;-72
2020/12/09 09:12:17;;;;;;;2.37;1.63;;;7.30;99.90;;;;;;5064272;28;20628;-72
2020/12/09 09:14:44;;;;;;;1.63;1.53;;;7.20;99.90;;;;;;5063738;28;20210;-71
2020/12/09 09:17:11;;;;;;;2.53;1.30;;;7.40;99.90;;;;;;5058646;28;20208;-70
2020/12/09 09:19:37;;;;;;;1.30;1.20;;;7.40;99.90;;;;;;5062235;28;20210;-69
2020/12/09 09:22:04;;;;;;;3.30;1.50;;;7.40;99.90;;;;;;5062809;28;20255;-67
2020/12/09 09:24:30;;;;;;;1.67;1.40;;;7.30;99.90;;;;;;5069134;28;20234;-69
2020/12/09 09:26:56;;;;;;;3.17;1.37;;;7.10;99.90;;;;;;5068956;28;20291;-67
2020/12/09 09:29:24;;;;;;;2.00;1.13;;;6.90;99.90;;;;;;5069569;28;20206;-67
2020/12/09 09:31:50;;;;;;;2.00;1.43;;;6.90;99.90;;;;;;5069133;28;20202;-69
2020/12/09 09:34:17;;;;;;;4.13;2.03;;;7.00;99.90;;;;;;5070170;28;20631;-67
2020/12/09 09:36:44;;;;;;;2.43;1.40;;;7.60;99.90;;;;;;5069829;28;20739;-69
2020/12/09 09:39:10;;;;;;;4.43;1.70;;;9.10;99.90;;;;;;5069550;28;20206;-69
2020/12/09 09:41:39;;;;;;;2.23;1.70;;;9.50;99.90;;;;;;5069825;28;20260;-67
2020/12/09 09:44:06;;;;;;;1.53;1.30;;;9.20;99.90;;;;;;5069332;28;20657;-68
2020/12/09 09:46:34;;;;;;;3.03;1.20;;;8.90;99.90;;;;;;5069783;28;20202;-68
2020/12/09 09:49:00;;;;;;;2.97;1.50;;;8.50;99.90;;;;;;5069545;28;20221;-69
2020/12/09 09:51:27;;;;;;;2.57;1.43;;;8.40;99.90;;;;;;5069840;28;20242;-69
2020/12/09 09:53:53;;;;;;;2.23;1.37;;;8.30;99.90;;;;;;5058219;28;20674;-69
2020/12/09 09:56:20;;;;;;;1.53;1.03;;;8.10;99.90;;;;;;5069641;28;20248;-68
2020/12/09 09:58:46;;;;;;;1.20;1.10;;;8.70;99.90;;;;;;5069424;28;20206;-69
2020/12/09 10:01:15;;;;;;;1.37;1.03;;;9.90;99.90;;;;;;5073235;28;20304;-68
2020/12/09 10:03:42;;;;;;;3.57;1.60;;;11.20;99.90;;;;;;5073441;28;20234;-68
2020/12/09 10:06:09;;;;;;;1.83;1.20;;;10.20;99.90;;;;;;5070152;28;20257;-69
2020/12/09 10:08:35;;;;;;;1.33;1.10;;;9.50;99.90;;;;;;5056271;28;20211;-70
2020/12/09 10:11:03;;;;;;;5.30;1.10;;;8.90;99.90;;;;;;5068458;28;20241;-68
2020/12/09 10:13:29;;;;;;;6.07;1.23;;;8.60;99.90;;;;;;5066004;28;20210;-72
2020/12/09 10:15:56;;;;;;;1.43;1.30;;;8.50;99.90;;;;;;5072302;28;20214;-71
2020/12/09 10:18:23;;;;;;;1.40;1.00;;;8.50;99.90;;;;;;5073197;28;20206;-71
2020/12/09 10:20:50;;;;;;;3.37;1.47;;;8.30;99.90;;;;;;5072791;28;20206;-71
2020/12/09 10:23:16;;;;;;;1.53;1.43;;;8.20;99.90;;;;;;5072279;28;20351;-69
2020/12/09 10:25:43;;;;;;;1.97;1.40;;;8.30;99.90;;;;;;5070521;28;20241;-71
2020/12/09 10:28:10;;;;;;;6.13;1.87;;;8.30;99.90;;;;;;5066011;28;20206;-68
2020/12/09 10:30:36;;;;;;;5.70;0.97;;;8.40;99.90;;;;;;5072459;28;20210;-72
2020/12/09 10:33:03;;;;;;;15.10;1.60;;;8.50;99.90;;;;;;5072044;28;20268;-71
2020/12/09 10:35:29;;;;;;;3.67;1.20;;;8.60;99.90;;;;;;5072699;28;20202;-70
2020/12/09 10:37:57;;;;;;;2.33;1.03;;;8.30;99.90;;;;;;5072051;28;20633;-68
2020/12/09 10:40:23;;;;;;;2.30;1.17;;;8.10;99.90;;;;;;5072108;28;20207;-70
2020/12/09 10:42:49;;;;;;;2.00;1.30;;;8.10;99.90;;;;;;5063284;28;20222;-67
2020/12/09 10:45:16;;;;;;;1.57;1.20;;;8.30;99.90;;;;;;5072422;28;20202;-67
2020/12/09 10:47:43;;;;;;;1.30;0.97;;;8.40;99.90;;;;;;5072315;28;20697;-69
2020/12/09 10:50:09;;;;;;;3.43;1.00;;;8.60;99.90;;;;;;5071931;28;20263;-69
2020/12/09 10:52:36;;;;;;;4.30;1.37;;;8.80;99.90;;;;;;5072045;28;20210;-68
2020/12/09 10:55:03;;;;;;;3.23;1.17;;;8.60;99.90;;;;;;5071518;28;20210;-67
2020/12/09 10:57:30;;;;;;;1.70;1.30;;;8.50;99.90;;;;;;5072081;28;20578;-72
2020/12/09 10:59:57;;;;;;;1.60;1.00;;;8.40;99.90;;;;;;5071650;28;20207;-70
2020/12/09 11:02:23;;;;;;;1.50;1.00;;;8.20;99.90;;;;;;5059864;28;20206;-67
2020/12/09 11:04:50;;;;;;;3.83;1.07;;;8.20;99.90;;;;;;5071589;28;20636;-71
2020/12/09 11:07:17;;;;;;;3.07;1.20;;;8.10;99.90;;;;;;5071765;28;20260;-69
2020/12/09 11:09:46;;;;;;;3.70;1.00;;;8.00;99.90;;;;;;5071559;28;20206;-72
2020/12/09 11:12:14;;;;;;;2.57;1.93;;;8.00;99.90;;;;;;5071198;28;20264;-73
2020/12/09 11:14:40;;;;;;;2.80;1.23;;;8.10;99.90;;;;;;5071465;28;20229;-72
2020/12/09 11:17:06;;;;;;;2.07;1.97;;;8.00;99.90;;;;;;5061794;28;20236;-73
2020/12/09 11:19:33;;;;;;;2.10;1.20;;;8.20;99.90;;;;;;5067735;28;20202;-71
2020/12/09 11:22:00;;;;;;;3.93;1.93;;;8.30;99.90;;;;;;5071187;28;20211;-69
2020/12/09 11:24:26;;;;;;;1.43;1.27;;;8.40;99.90;;;;;;5071335;28;20241;-71
2020/12/09 11:26:53;;;;;;;2.33;1.40;;;8.40;99.90;;;;;;5071181;28;20550;-73
2020/12/09 11:29:21;;;;;;;1.67;1.13;;;8.20;99.90;;;;;;5071549;28;20210;-74
2020/12/09 11:31:48;;;;;;;3.40;0.93;;;8.10;99.90;;;;;;5059878;28;20347;-68
2020/12/09 11:34:14;;;;;;;2.90;1.47;;;8.10;99.90;;;;;;5058753;28;20740;-72
2020/12/09 11:36:40;;;;;;;1.07;0.90;;;8.20;99.90;;;;;;5063116;28;20202;-73
2020/12/09 11:39:07;;;;;;;2.03;0.90;;;8.20;99.90;;;;;;5053579;28;20268;-72
2020/12/09 11:41:34;;;;;;;2.30;0.90;;;7.90;99.90;;;;;;5062600;28;20206;-71
2020/12/09 11:44:00;;;;;;;1.57;1.20;;;7.70;99.90;;;;;;5069212;28;20226;-70
2020/12/09 11:46:28;;;;;;;2.73;0.73;;;7.50;99.90;;;;;;5065841;28;20202;-71
2020/12/09 11:48:55;;;;;;;1.77;0.90;;;7.30;99.90;;;;;;5070696;28;20201;-70
2020/12/09 11:51:22;;;;;;;3.67;1.33;;;7.10;99.90;;;;;;5071110;28;20202;-72
2020/12/09 11:53:48;;;;;;;2.97;0.70;;;7.10;99.90;;;;;;5070531;28;20207;-72
2020/12/09 11:56:21;;;;;;;1.90;0.90;;;7.20;99.90;;;;;;5066087;28;20202;-71
2020/12/09 11:58:47;;;;;;;1.93;0.97;;;7.10;99.90;;;;;;5060226;28;20198;-69
2020/12/09 12:01:15;;;;;;;1.00;0.90;;;7.10;99.90;;;;;;5059741;28;20669;-73
2020/12/09 12:03:42;;;;;;;1.27;0.60;;;7.20;99.90;;;;;;5059636;28;20309;-72
2020/12/09 12:06:13;;;;;;;1.73;0.90;;;7.40;99.90;;;;;;5057958;28;20267;-69
2020/12/09 12:08:39;;;;;;;1.87;0.90;;;7.60;99.90;;;;;;5066024;28;20201;-70
2020/12/09 12:11:06;;;;;;;1.73;1.60;;;7.60;99.90;;;;;;5070046;28;20206;-69
2020/12/09 12:13:32;;;;;;;2.53;1.43;;;7.60;99.90;;;;;;5070692;28;20207;-70
2020/12/09 12:15:58;;;;;;;2.00;1.10;;;7.70;99.90;;;;;;5068945;28;20206;-72
2020/12/09 12:18:25;;;;;;;8.17;7.37;;;7.90;99.90;;;;;;5064914;28;20207;-67
2020/12/09 12:20:52;;;;;;;4.97;2.10;;;7.90;99.90;;;;;;5064708;28;20583;-71
2020/12/09 12:23:18;;;;;;;4.80;2.83;;;8.00;99.90;;;;;;5068957;28;20327;-70
2020/12/09 12:25:46;;;;;;;2.07;1.60;;;8.20;99.90;;;;;;5069713;28;20670;-73
2020/12/09 12:28:12;;;;;;;2.77;1.80;;;8.40;99.90;;;;;;5069960;28;20578;-70
2020/12/09 12:30:39;;;;;;;2.73;1.80;;;8.70;99.90;;;;;;5063264;28;20229;-72
2020/12/09 12:33:05;;;;;;;2.13;1.73;;;8.90;99.90;;;;;;5065548;28;20217;-68
2020/12/09 12:35:32;;;;;;;2.83;1.50;;;9.10;99.90;;;;;;5070834;28;20201;-73
2020/12/09 12:37:59;;;;;;;2.03;1.37;;;9.10;99.90;;;;;;5069855;28;20206;-72
2020/12/09 12:40:25;;;;;;;3.87;1.80;;;9.00;99.90;;;;;;5060663;28;20202;-69
2020/12/09 12:42:52;;;;;;;5.57;1.50;;;8.90;99.90;;;;;;5070096;28;20206;-73
2020/12/09 12:45:21;;;;;;;2.27;1.23;;;8.80;99.90;;;;;;5062216;28;20739;-73
2020/12/09 12:47:49;;;;;;;2.70;1.50;;;8.70;99.90;;;;;;5065119;28;20199;-68
2020/12/09 12:50:16;;;;;;;2.20;1.67;;;9.10;99.90;;;;;;5062881;28;20210;-68
2020/12/09 12:52:42;;;;;;;2.10;1.40;;;9.30;99.90;;;;;;5070361;28;20276;-69
2020/12/09 12:55:09;;;;;;;5.00;1.47;;;9.40;99.90;;;;;;5068008;28;20209;-73
2020/12/09 12:57:36;;;;;;;1.47;0.90;;;9.40;99.90;;;;;;5070127;28;20263;-72
2020/12/09 13:00:02;;;;;;;2.23;1.70;;;9.10;99.90;;;;;;5063437;28;20211;-72